sensor_id;sensor_type;location;lat;lon;timestamp;P1;durP1;ratioP1;P2;durP2;ratioP2
51292;SDS011;37377;45.186;9.778;2023-04-27T00:01:59;17.73;;;10.45;;
51292;SDS011;37377;45.186;9.778;2023-04-27T00:04:27;13.15;;;9.27;;
51292;SDS011;37377;45.186;9.778;2023-04-27T00:06:55;9.55;;;8.63;;
51292;SDS011;37377;45.186;9.778;2023-04-27T00:09:22;11.98;;;9.38;;
51292;SDS011;37377;45.186;9.778;2023-04-27T00:11:49;12.98;;;9.10;;
51292;SDS011;37377;45.186;9.778;2023-04-27T00:14:16;9.73;;;8.80;;
51292;SDS011;37377;45.186;9.778;2023-04-27T00:16:43;9.90;;;8.68;;
51292;SDS011;37377;45.186;9.778;2023-04-27T00:19:10;12.13;;;9.35;;
51292;SDS011;37377;45.186;9.778;2023-04-27T00:21:39;9.00;;;8.20;;
51292;SDS011;37377;45.186;9.778;2023-04-27T00:24:06;16.33;;;8.52;;
51292;SDS011;37377;45.186;9.778;2023-04-27T00:26:33;9.73;;;8.75;;
51292;SDS011;37377;45.186;9.778;2023-04-27T00:29:01;15.60;;;9.75;;
51292;SDS011;37377;45.186;9.778;2023-04-27T00:31:28;12.48;;;8.60;;
51292;SDS011;37377;45.186;9.778;2023-04-27T00:33:55;9.63;;;8.73;;
51292;SDS011;37377;45.186;9.778;2023-04-27T00:36:29;12.82;;;8.13;;
51292;SDS011;37377;45.186;9.778;2023-04-27T00:38:56;11.85;;;8.00;;
51292;SDS011;37377;45.186;9.778;2023-04-27T00:41:24;11.57;;;8.00;;
51292;SDS011;37377;45.186;9.778;2023-04-27T00:43:51;9.82;;;7.80;;
51292;SDS011;37377;45.186;9.778;2023-04-27T00:46:18;8.60;;;7.70;;
51292;SDS011;37377;45.186;9.778;2023-04-27T00:48:45;15.55;;;7.88;;
51292;SDS011;37377;45.186;9.778;2023-04-27T00:51:12;13.70;;;8.45;;
51292;SDS011;37377;45.186;9.778;2023-04-27T00:53:39;13.45;;;8.63;;
51292;SDS011;37377;45.186;9.778;2023-04-27T00:56:07;12.00;;;7.55;;
51292;SDS011;37377;45.186;9.778;2023-04-27T00:58:34;12.32;;;8.35;;
51292;SDS011;37377;45.186;9.778;2023-04-27T01:01:01;10.18;;;7.72;;
51292;SDS011;37377;45.186;9.778;2023-04-27T01:03:29;17.05;;;8.23;;
51292;SDS011;37377;45.186;9.778;2023-04-27T01:05:58;12.23;;;8.50;;
51292;SDS011;37377;45.186;9.778;2023-04-27T01:08:27;14.10;;;8.40;;
51292;SDS011;37377;45.186;9.778;2023-04-27T01:10:55;12.70;;;8.02;;
51292;SDS011;37377;45.186;9.778;2023-04-27T01:13:22;9.77;;;8.57;;
51292;SDS011;37377;45.186;9.778;2023-04-27T01:15:49;10.60;;;8.60;;
51292;SDS011;37377;45.186;9.778;2023-04-27T01:18:17;8.70;;;7.80;;
51292;SDS011;37377;45.186;9.778;2023-04-27T01:20:44;12.00;;;7.80;;
51292;SDS011;37377;45.186;9.778;2023-04-27T01:23:14;8.45;;;7.75;;
51292;SDS011;37377;45.186;9.778;2023-04-27T01:25:43;9.20;;;8.40;;
51292;SDS011;37377;45.186;9.778;2023-04-27T01:28:10;9.02;;;8.07;;
51292;SDS011;37377;45.186;9.778;2023-04-27T01:30:38;15.73;;;9.13;;
51292;SDS011;37377;45.186;9.778;2023-04-27T01:33:05;10.85;;;8.32;;
51292;SDS011;37377;45.186;9.778;2023-04-27T01:35:32;10.55;;;8.18;;
51292;SDS011;37377;45.186;9.778;2023-04-27T01:38:00;10.07;;;8.30;;
51292;SDS011;37377;45.186;9.778;2023-04-27T01:40:27;8.70;;;7.93;;
51292;SDS011;37377;45.186;9.778;2023-04-27T01:42:55;8.52;;;7.63;;
51292;SDS011;37377;45.186;9.778;2023-04-27T01:45:22;12.48;;;8.02;;
51292;SDS011;37377;45.186;9.778;2023-04-27T01:47:52;7.78;;;7.07;;
51292;SDS011;37377;45.186;9.778;2023-04-27T01:50:19;9.75;;;7.80;;
51292;SDS011;37377;45.186;9.778;2023-04-27T01:52:46;8.35;;;7.43;;
51292;SDS011;37377;45.186;9.778;2023-04-27T01:55:13;8.60;;;7.72;;
51292;SDS011;37377;45.186;9.778;2023-04-27T01:57:41;10.43;;;7.40;;
51292;SDS011;37377;45.186;9.778;2023-04-27T02:00:09;10.02;;;7.72;;
51292;SDS011;37377;45.186;9.778;2023-04-27T02:03:00;9.20;;;8.40;;
51292;SDS011;37377;45.186;9.778;2023-04-27T02:05:27;10.00;;;8.48;;
51292;SDS011;37377;45.186;9.778;2023-04-27T02:07:55;10.35;;;8.20;;
51292;SDS011;37377;45.186;9.778;2023-04-27T02:10:22;9.90;;;7.80;;
51292;SDS011;37377;45.186;9.778;2023-04-27T02:12:54;11.52;;;8.15;;
51292;SDS011;37377;45.186;9.778;2023-04-27T02:15:21;8.80;;;7.80;;
51292;SDS011;37377;45.186;9.778;2023-04-27T02:17:48;9.90;;;7.90;;
51292;SDS011;37377;45.186;9.778;2023-04-27T02:20:15;10.68;;;8.57;;
51292;SDS011;37377;45.186;9.778;2023-04-27T02:22:42;13.00;;;8.90;;
51292;SDS011;37377;45.186;9.778;2023-04-27T02:25:10;10.65;;;8.30;;
51292;SDS011;37377;45.186;9.778;2023-04-27T02:27:38;15.13;;;8.65;;
51292;SDS011;37377;45.186;9.778;2023-04-27T02:30:06;11.38;;;8.23;;
51292;SDS011;37377;45.186;9.778;2023-04-27T02:32:34;11.40;;;8.50;;
51292;SDS011;37377;45.186;9.778;2023-04-27T02:35:03;9.88;;;8.75;;
51292;SDS011;37377;45.186;9.778;2023-04-27T02:37:30;11.68;;;8.63;;
51292;SDS011;37377;45.186;9.778;2023-04-27T02:39:57;10.75;;;8.05;;
51292;SDS011;37377;45.186;9.778;2023-04-27T02:42:26;8.70;;;7.97;;
51292;SDS011;37377;45.186;9.778;2023-04-27T02:44:53;13.30;;;8.70;;
51292;SDS011;37377;45.186;9.778;2023-04-27T02:47:20;9.98;;;8.73;;
51292;SDS011;37377;45.186;9.778;2023-04-27T02:49:47;10.07;;;8.43;;
51292;SDS011;37377;45.186;9.778;2023-04-27T02:52:14;10.45;;;9.32;;
51292;SDS011;37377;45.186;9.778;2023-04-27T02:54:41;12.18;;;8.35;;
51292;SDS011;37377;45.186;9.778;2023-04-27T02:57:08;11.48;;;9.40;;
51292;SDS011;37377;45.186;9.778;2023-04-27T02:59:36;15.38;;;10.60;;
51292;SDS011;37377;45.186;9.778;2023-04-27T03:02:03;16.00;;;13.63;;
51292;SDS011;37377;45.186;9.778;2023-04-27T03:04:30;18.17;;;14.98;;
51292;SDS011;37377;45.186;9.778;2023-04-27T03:06:57;19.02;;;15.43;;
51292;SDS011;37377;45.186;9.778;2023-04-27T03:09:24;14.40;;;12.93;;
51292;SDS011;37377;45.186;9.778;2023-04-27T03:11:51;11.40;;;10.10;;
51292;SDS011;37377;45.186;9.778;2023-04-27T03:14:19;16.48;;;8.32;;
51292;SDS011;37377;45.186;9.778;2023-04-27T03:16:46;8.95;;;8.25;;
51292;SDS011;37377;45.186;9.778;2023-04-27T03:19:13;15.27;;;8.82;;
51292;SDS011;37377;45.186;9.778;2023-04-27T03:21:40;9.35;;;8.55;;
51292;SDS011;37377;45.186;9.778;2023-04-27T03:24:08;10.73;;;7.72;;
51292;SDS011;37377;45.186;9.778;2023-04-27T03:26:35;11.45;;;8.73;;
51292;SDS011;37377;45.186;9.778;2023-04-27T03:29:02;12.98;;;8.63;;
51292;SDS011;37377;45.186;9.778;2023-04-27T03:31:30;10.00;;;8.95;;
51292;SDS011;37377;45.186;9.778;2023-04-27T03:33:57;16.27;;;10.50;;
51292;SDS011;37377;45.186;9.778;2023-04-27T03:36:24;17.48;;;11.07;;
51292;SDS011;37377;45.186;9.778;2023-04-27T03:38:52;13.50;;;10.20;;
51292;SDS011;37377;45.186;9.778;2023-04-27T03:41:19;10.93;;;9.63;;
51292;SDS011;37377;45.186;9.778;2023-04-27T03:43:46;13.60;;;9.65;;
51292;SDS011;37377;45.186;9.778;2023-04-27T03:46:16;14.27;;;9.95;;
51292;SDS011;37377;45.186;9.778;2023-04-27T03:48:43;10.40;;;9.38;;
51292;SDS011;37377;45.186;9.778;2023-04-27T03:51:10;10.23;;;8.70;;
51292;SDS011;37377;45.186;9.778;2023-04-27T03:53:37;16.30;;;9.60;;
51292;SDS011;37377;45.186;9.778;2023-04-27T03:56:05;12.75;;;9.05;;
51292;SDS011;37377;45.186;9.778;2023-04-27T03:58:33;10.48;;;9.02;;
51292;SDS011;37377;45.186;9.778;2023-04-27T04:01:15;12.48;;;9.48;;
51292;SDS011;37377;45.186;9.778;2023-04-27T04:03:45;12.15;;;8.55;;
51292;SDS011;37377;45.186;9.778;2023-04-27T04:06:15;11.93;;;8.07;;
51292;SDS011;37377;45.186;9.778;2023-04-27T04:08:43;10.85;;;7.72;;
51292;SDS011;37377;45.186;9.778;2023-04-27T04:11:11;9.07;;;8.18;;
51292;SDS011;37377;45.186;9.778;2023-04-27T04:13:41;10.75;;;8.60;;
51292;SDS011;37377;45.186;9.778;2023-04-27T04:16:09;12.73;;;8.82;;
51292;SDS011;37377;45.186;9.778;2023-04-27T04:18:38;14.60;;;9.63;;
51292;SDS011;37377;45.186;9.778;2023-04-27T04:21:05;17.98;;;9.68;;
51292;SDS011;37377;45.186;9.778;2023-04-27T04:23:32;15.43;;;9.60;;
51292;SDS011;37377;45.186;9.778;2023-04-27T04:25:59;19.80;;;10.02;;
51292;SDS011;37377;45.186;9.778;2023-04-27T04:28:32;21.10;;;9.75;;
51292;SDS011;37377;45.186;9.778;2023-04-27T04:31:02;18.85;;;10.38;;
51292;SDS011;37377;45.186;9.778;2023-04-27T04:33:31;13.25;;;9.80;;
51292;SDS011;37377;45.186;9.778;2023-04-27T04:36:01;12.93;;;9.07;;
51292;SDS011;37377;45.186;9.778;2023-04-27T04:38:29;15.00;;;9.82;;
51292;SDS011;37377;45.186;9.778;2023-04-27T04:40:57;20.90;;;9.60;;
51292;SDS011;37377;45.186;9.778;2023-04-27T04:43:25;15.13;;;9.10;;
51292;SDS011;37377;45.186;9.778;2023-04-27T04:45:52;17.88;;;9.70;;
51292;SDS011;37377;45.186;9.778;2023-04-27T04:48:19;19.45;;;9.10;;
51292;SDS011;37377;45.186;9.778;2023-04-27T04:50:47;13.93;;;9.05;;
51292;SDS011;37377;45.186;9.778;2023-04-27T04:53:14;17.98;;;9.35;;
51292;SDS011;37377;45.186;9.778;2023-04-27T04:55:42;12.23;;;8.70;;
51292;SDS011;37377;45.186;9.778;2023-04-27T04:58:09;12.10;;;8.98;;
51292;SDS011;37377;45.186;9.778;2023-04-27T05:00:36;12.50;;;8.90;;
51292;SDS011;37377;45.186;9.778;2023-04-27T05:03:03;13.95;;;9.60;;
51292;SDS011;37377;45.186;9.778;2023-04-27T05:05:33;14.88;;;8.70;;
51292;SDS011;37377;45.186;9.778;2023-04-27T05:08:00;17.33;;;8.73;;
51292;SDS011;37377;45.186;9.778;2023-04-27T05:10:27;13.02;;;7.60;;
51292;SDS011;37377;45.186;9.778;2023-04-27T05:12:55;13.93;;;7.25;;
51292;SDS011;37377;45.186;9.778;2023-04-27T05:15:24;15.05;;;7.07;;
51292;SDS011;37377;45.186;9.778;2023-04-27T05:17:52;22.38;;;6.95;;
51292;SDS011;37377;45.186;9.778;2023-04-27T05:20:20;15.18;;;6.72;;
51292;SDS011;37377;45.186;9.778;2023-04-27T05:22:47;9.73;;;5.90;;
51292;SDS011;37377;45.186;9.778;2023-04-27T05:25:14;8.95;;;5.47;;
51292;SDS011;37377;45.186;9.778;2023-04-27T05:27:42;10.20;;;6.10;;
51292;SDS011;37377;45.186;9.778;2023-04-27T05:30:12;8.88;;;5.70;;
51292;SDS011;37377;45.186;9.778;2023-04-27T05:32:39;8.55;;;5.43;;
51292;SDS011;37377;45.186;9.778;2023-04-27T05:35:06;8.25;;;5.28;;
51292;SDS011;37377;45.186;9.778;2023-04-27T05:37:33;6.03;;;4.90;;
51292;SDS011;37377;45.186;9.778;2023-04-27T05:40:00;13.10;;;5.35;;
51292;SDS011;37377;45.186;9.778;2023-04-27T05:42:28;9.40;;;5.07;;
51292;SDS011;37377;45.186;9.778;2023-04-27T05:44:55;41.28;;;7.47;;
51292;SDS011;37377;45.186;9.778;2023-04-27T05:47:22;9.80;;;4.97;;
51292;SDS011;37377;45.186;9.778;2023-04-27T05:49:50;20.30;;;5.25;;
51292;SDS011;37377;45.186;9.778;2023-04-27T05:52:18;5.65;;;4.13;;
51292;SDS011;37377;45.186;9.778;2023-04-27T05:54:48;7.22;;;4.97;;
51292;SDS011;37377;45.186;9.778;2023-04-27T05:57:15;6.30;;;4.53;;
51292;SDS011;37377;45.186;9.778;2023-04-27T05:59:42;18.70;;;5.78;;
51292;SDS011;37377;45.186;9.778;2023-04-27T06:02:11;5.15;;;4.15;;
51292;SDS011;37377;45.186;9.778;2023-04-27T06:04:38;27.77;;;5.10;;
51292;SDS011;37377;45.186;9.778;2023-04-27T06:07:08;5.90;;;4.35;;
51292;SDS011;37377;45.186;9.778;2023-04-27T06:09:36;5.90;;;4.63;;
51292;SDS011;37377;45.186;9.778;2023-04-27T06:12:08;7.65;;;5.10;;
51292;SDS011;37377;45.186;9.778;2023-04-27T06:14:36;9.70;;;4.90;;
51292;SDS011;37377;45.186;9.778;2023-04-27T06:17:13;15.55;;;6.35;;
51292;SDS011;37377;45.186;9.778;2023-04-27T06:19:51;9.75;;;6.13;;
51292;SDS011;37377;45.186;9.778;2023-04-27T06:22:30;14.30;;;11.27;;
51292;SDS011;37377;45.186;9.778;2023-04-27T06:26:15;13.35;;;5.85;;
51292;SDS011;37377;45.186;9.778;2023-04-27T06:33:19;11.52;;;6.85;;
51292;SDS011;37377;45.186;9.778;2023-04-27T06:36:11;11.38;;;6.38;;
51292;SDS011;37377;45.186;9.778;2023-04-27T06:44:46;11.23;;;6.35;;
51292;SDS011;37377;45.186;9.778;2023-04-27T06:47:18;7.65;;;6.40;;
51292;SDS011;37377;45.186;9.778;2023-04-27T06:49:45;6.05;;;5.30;;
51292;SDS011;37377;45.186;9.778;2023-04-27T06:52:26;10.68;;;6.07;;
51292;SDS011;37377;45.186;9.778;2023-04-27T07:05:15;6.00;;;5.20;;
51292;SDS011;37377;45.186;9.778;2023-04-27T07:09:41;12.63;;;5.63;;
51292;SDS011;37377;45.186;9.778;2023-04-27T07:12:29;17.70;;;6.40;;
51292;SDS011;37377;45.186;9.778;2023-04-27T07:14:56;13.82;;;5.53;;
51292;SDS011;37377;45.186;9.778;2023-04-27T07:17:23;13.88;;;5.40;;
51292;SDS011;37377;45.186;9.778;2023-04-27T07:19:53;6.53;;;5.10;;
51292;SDS011;37377;45.186;9.778;2023-04-27T07:22:20;21.15;;;5.60;;
51292;SDS011;37377;45.186;9.778;2023-04-27T07:24:47;9.93;;;4.97;;
51292;SDS011;37377;45.186;9.778;2023-04-27T07:27:13;6.50;;;5.20;;
51292;SDS011;37377;45.186;9.778;2023-04-27T07:29:42;7.00;;;4.25;;
51292;SDS011;37377;45.186;9.778;2023-04-27T07:32:12;10.63;;;5.13;;
51292;SDS011;37377;45.186;9.778;2023-04-27T07:34:42;16.85;;;5.57;;
51292;SDS011;37377;45.186;9.778;2023-04-27T07:37:20;8.85;;;5.22;;
51292;SDS011;37377;45.186;9.778;2023-04-27T07:39:50;14.35;;;6.10;;
51292;SDS011;37377;45.186;9.778;2023-04-27T07:42:20;16.20;;;5.82;;
51292;SDS011;37377;45.186;9.778;2023-04-27T07:44:50;13.90;;;7.43;;
51292;SDS011;37377;45.186;9.778;2023-04-27T07:47:18;12.85;;;6.25;;
51292;SDS011;37377;45.186;9.778;2023-04-27T07:49:45;21.25;;;7.50;;
51292;SDS011;37377;45.186;9.778;2023-04-27T07:52:14;7.03;;;5.57;;
51292;SDS011;37377;45.186;9.778;2023-04-27T07:55:13;10.95;;;5.40;;
51292;SDS011;37377;45.186;9.778;2023-04-27T07:57:47;14.48;;;5.03;;
51292;SDS011;37377;45.186;9.778;2023-04-27T08:00:14;6.15;;;5.55;;
51292;SDS011;37377;45.186;9.778;2023-04-27T08:02:41;6.88;;;4.55;;
51292;SDS011;37377;45.186;9.778;2023-04-27T08:05:09;7.95;;;4.78;;
51292;SDS011;37377;45.186;9.778;2023-04-27T08:07:37;8.63;;;5.03;;
51292;SDS011;37377;45.186;9.778;2023-04-27T08:10:10;11.07;;;5.75;;
51292;SDS011;37377;45.186;9.778;2023-04-27T08:12:40;14.32;;;7.70;;
51292;SDS011;37377;45.186;9.778;2023-04-27T08:15:21;9.05;;;6.75;;
51292;SDS011;37377;45.186;9.778;2023-04-27T08:18:10;9.85;;;5.65;;
51292;SDS011;37377;45.186;9.778;2023-04-27T08:20:37;5.25;;;4.80;;
51292;SDS011;37377;45.186;9.778;2023-04-27T08:23:21;10.00;;;4.97;;
51292;SDS011;37377;45.186;9.778;2023-04-27T08:25:50;6.32;;;5.53;;
51292;SDS011;37377;45.186;9.778;2023-04-27T08:28:59;13.63;;;5.43;;
51292;SDS011;37377;45.186;9.778;2023-04-27T08:32:40;13.23;;;6.50;;
51292;SDS011;37377;45.186;9.778;2023-04-27T08:36:20;10.05;;;4.85;;
51292;SDS011;37377;45.186;9.778;2023-04-27T08:38:45;9.07;;;4.03;;
51292;SDS011;37377;45.186;9.778;2023-04-27T08:41:21;8.75;;;5.38;;
51292;SDS011;37377;45.186;9.778;2023-04-27T08:44:18;7.70;;;5.03;;
51292;SDS011;37377;45.186;9.778;2023-04-27T08:46:56;5.22;;;4.15;;
51292;SDS011;37377;45.186;9.778;2023-04-27T08:49:24;9.75;;;4.63;;
51292;SDS011;37377;45.186;9.778;2023-04-27T08:51:55;6.03;;;3.45;;
51292;SDS011;37377;45.186;9.778;2023-04-27T08:55:25;7.60;;;4.30;;
51292;SDS011;37377;45.186;9.778;2023-04-27T08:59:11;12.50;;;4.55;;
51292;SDS011;37377;45.186;9.778;2023-04-27T09:02:58;9.80;;;4.00;;
51292;SDS011;37377;45.186;9.778;2023-04-27T09:05:31;7.45;;;4.57;;
51292;SDS011;37377;45.186;9.778;2023-04-27T09:11:34;9.10;;;3.90;;
51292;SDS011;37377;45.186;9.778;2023-04-27T09:14:59;5.00;;;4.38;;
51292;SDS011;37377;45.186;9.778;2023-04-27T09:17:30;5.90;;;3.97;;
51292;SDS011;37377;45.186;9.778;2023-04-27T09:20:06;4.50;;;4.10;;
51292;SDS011;37377;45.186;9.778;2023-04-27T09:23:28;5.88;;;4.10;;
51292;SDS011;37377;45.186;9.778;2023-04-27T09:26:18;6.65;;;4.20;;
51292;SDS011;37377;45.186;9.778;2023-04-27T09:29:38;6.07;;;4.75;;
51292;SDS011;37377;45.186;9.778;2023-04-27T09:33:37;4.80;;;4.28;;
51292;SDS011;37377;45.186;9.778;2023-04-27T09:40:39;5.55;;;5.05;;
51292;SDS011;37377;45.186;9.778;2023-04-27T09:43:44;13.75;;;4.70;;
51292;SDS011;37377;45.186;9.778;2023-04-27T09:46:26;4.82;;;4.40;;
51292;SDS011;37377;45.186;9.778;2023-04-27T09:49:09;12.75;;;5.20;;
51292;SDS011;37377;45.186;9.778;2023-04-27T09:53:09;6.70;;;5.28;;
51292;SDS011;37377;45.186;9.778;2023-04-27T09:56:15;6.32;;;5.15;;
51292;SDS011;37377;45.186;9.778;2023-04-27T10:04:29;7.38;;;5.22;;
51292;SDS011;37377;45.186;9.778;2023-04-27T10:07:03;9.35;;;4.65;;
51292;SDS011;37377;45.186;9.778;2023-04-27T10:12:25;7.65;;;5.60;;
51292;SDS011;37377;45.186;9.778;2023-04-27T10:15:45;6.80;;;5.35;;
51292;SDS011;37377;45.186;9.778;2023-04-27T10:18:12;11.73;;;5.55;;
51292;SDS011;37377;45.186;9.778;2023-04-27T10:20:41;13.98;;;5.65;;
51292;SDS011;37377;45.186;9.778;2023-04-27T10:23:08;6.35;;;5.18;;
51292;SDS011;37377;45.186;9.778;2023-04-27T10:25:39;10.55;;;5.20;;
51292;SDS011;37377;45.186;9.778;2023-04-27T10:28:06;7.10;;;5.50;;
51292;SDS011;37377;45.186;9.778;2023-04-27T10:30:37;7.80;;;5.53;;
51292;SDS011;37377;45.186;9.778;2023-04-27T10:34:21;6.10;;;5.55;;
51292;SDS011;37377;45.186;9.778;2023-04-27T10:37:42;9.38;;;5.72;;
51292;SDS011;37377;45.186;9.778;2023-04-27T10:41:15;21.02;;;6.78;;
51292;SDS011;37377;45.186;9.778;2023-04-27T10:44:23;11.23;;;8.48;;
51292;SDS011;37377;45.186;9.778;2023-04-27T10:47:18;15.10;;;7.07;;
51292;SDS011;37377;45.186;9.778;2023-04-27T10:50:17;8.77;;;7.18;;
51292;SDS011;37377;45.186;9.778;2023-04-27T10:52:47;9.95;;;7.22;;
51292;SDS011;37377;45.186;9.778;2023-04-27T10:55:15;10.70;;;6.55;;
51292;SDS011;37377;45.186;9.778;2023-04-27T10:57:55;12.27;;;5.38;;
51292;SDS011;37377;45.186;9.778;2023-04-27T11:00:29;8.68;;;6.00;;
51292;SDS011;37377;45.186;9.778;2023-04-27T11:03:08;11.00;;;6.32;;
51292;SDS011;37377;45.186;9.778;2023-04-27T11:05:41;11.18;;;5.50;;
51292;SDS011;37377;45.186;9.778;2023-04-27T11:08:23;12.10;;;6.00;;
51292;SDS011;37377;45.186;9.778;2023-04-27T11:12:04;6.35;;;5.75;;
51292;SDS011;37377;45.186;9.778;2023-04-27T11:19:29;8.82;;;5.90;;
51292;SDS011;37377;45.186;9.778;2023-04-27T11:28:15;7.80;;;5.43;;
51292;SDS011;37377;45.186;9.778;2023-04-27T11:41:38;11.15;;;6.50;;
51292;SDS011;37377;45.186;9.778;2023-04-27T11:46:03;8.73;;;6.45;;
51292;SDS011;37377;45.186;9.778;2023-04-27T11:50:06;7.10;;;5.57;;
51292;SDS011;37377;45.186;9.778;2023-04-27T12:22:14;8.40;;;7.63;;
51292;SDS011;37377;45.186;9.778;2023-04-27T12:24:49;12.77;;;9.55;;
51292;SDS011;37377;45.186;9.778;2023-04-27T12:27:55;12.73;;;9.15;;
51292;SDS011;37377;45.186;9.778;2023-04-27T12:36:43;15.98;;;9.27;;
51292;SDS011;37377;45.186;9.778;2023-04-27T12:44:34;20.33;;;9.00;;
51292;SDS011;37377;45.186;9.778;2023-04-27T12:48:55;14.43;;;8.43;;
51292;SDS011;37377;45.186;9.778;2023-04-27T12:52:34;12.45;;;9.60;;
51292;SDS011;37377;45.186;9.778;2023-04-27T13:05:06;20.25;;;9.23;;
51292;SDS011;37377;45.186;9.778;2023-04-27T13:08:13;13.45;;;8.65;;
51292;SDS011;37377;45.186;9.778;2023-04-27T13:11:30;15.85;;;9.77;;
51292;SDS011;37377;45.186;9.778;2023-04-27T13:20:26;15.32;;;9.52;;
51292;SDS011;37377;45.186;9.778;2023-04-27T13:33:11;11.70;;;10.48;;
51292;SDS011;37377;45.186;9.778;2023-04-27T13:41:54;13.30;;;10.23;;
51292;SDS011;37377;45.186;9.778;2023-04-27T13:46:38;12.65;;;9.77;;
51292;SDS011;37377;45.186;9.778;2023-04-27T13:49:54;17.10;;;10.18;;
51292;SDS011;37377;45.186;9.778;2023-04-27T13:52:23;12.88;;;9.90;;
51292;SDS011;37377;45.186;9.778;2023-04-27T14:01:51;26.88;;;11.77;;
51292;SDS011;37377;45.186;9.778;2023-04-27T14:09:37;13.68;;;11.23;;
51292;SDS011;37377;45.186;9.778;2023-04-27T14:12:42;15.77;;;11.52;;
51292;SDS011;37377;45.186;9.778;2023-04-27T14:22:37;21.17;;;10.90;;
51292;SDS011;37377;45.186;9.778;2023-04-27T14:25:56;17.05;;;10.20;;
51292;SDS011;37377;45.186;9.778;2023-04-27T14:29:06;12.55;;;10.10;;
51292;SDS011;37377;45.186;9.778;2023-04-27T14:32:50;15.18;;;12.27;;
51292;SDS011;37377;45.186;9.778;2023-04-27T14:36:37;19.63;;;9.57;;
51292;SDS011;37377;45.186;9.778;2023-04-27T14:40:23;13.57;;;10.20;;
51292;SDS011;37377;45.186;9.778;2023-04-27T14:42:53;15.50;;;10.63;;
51292;SDS011;37377;45.186;9.778;2023-04-27T14:45:27;13.93;;;10.05;;
51292;SDS011;37377;45.186;9.778;2023-04-27T14:48:49;15.05;;;9.82;;
51292;SDS011;37377;45.186;9.778;2023-04-27T15:01:17;15.43;;;12.13;;
51292;SDS011;37377;45.186;9.778;2023-04-27T15:04:37;19.38;;;11.23;;
51292;SDS011;37377;45.186;9.778;2023-04-27T15:07:30;15.27;;;11.25;;
51292;SDS011;37377;45.186;9.778;2023-04-27T15:10:29;19.85;;;10.93;;
51292;SDS011;37377;45.186;9.778;2023-04-27T15:13:47;16.42;;;11.90;;
51292;SDS011;37377;45.186;9.778;2023-04-27T15:16:31;18.63;;;12.05;;
51292;SDS011;37377;45.186;9.778;2023-04-27T15:18:58;18.40;;;14.35;;
51292;SDS011;37377;45.186;9.778;2023-04-27T15:21:25;19.92;;;12.05;;
51292;SDS011;37377;45.186;9.778;2023-04-27T15:23:55;20.80;;;12.00;;
51292;SDS011;37377;45.186;9.778;2023-04-27T15:26:26;17.70;;;11.95;;
51292;SDS011;37377;45.186;9.778;2023-04-27T15:29:16;16.38;;;10.88;;
51292;SDS011;37377;45.186;9.778;2023-04-27T15:31:47;19.50;;;11.50;;
51292;SDS011;37377;45.186;9.778;2023-04-27T15:34:21;20.00;;;12.13;;
51292;SDS011;37377;45.186;9.778;2023-04-27T15:36:50;21.45;;;11.30;;
51292;SDS011;37377;45.186;9.778;2023-04-27T15:39:34;19.70;;;11.93;;
51292;SDS011;37377;45.186;9.778;2023-04-27T15:42:03;23.27;;;12.73;;
51292;SDS011;37377;45.186;9.778;2023-04-27T15:44:33;14.43;;;11.13;;
51292;SDS011;37377;45.186;9.778;2023-04-27T15:47:01;16.48;;;11.95;;
51292;SDS011;37377;45.186;9.778;2023-04-27T15:49:38;21.70;;;12.45;;
51292;SDS011;37377;45.186;9.778;2023-04-27T15:52:23;20.75;;;12.43;;
51292;SDS011;37377;45.186;9.778;2023-04-27T15:55:11;16.50;;;12.23;;
51292;SDS011;37377;45.186;9.778;2023-04-27T15:57:47;14.65;;;11.45;;
51292;SDS011;37377;45.186;9.778;2023-04-27T16:04:20;18.58;;;11.68;;
51292;SDS011;37377;45.186;9.778;2023-04-27T16:06:59;19.40;;;11.48;;
51292;SDS011;37377;45.186;9.778;2023-04-27T16:09:41;22.17;;;11.68;;
51292;SDS011;37377;45.186;9.778;2023-04-27T16:13:06;14.07;;;10.77;;
51292;SDS011;37377;45.186;9.778;2023-04-27T16:15:57;24.38;;;12.10;;
51292;SDS011;37377;45.186;9.778;2023-04-27T16:18:41;19.98;;;12.07;;
51292;SDS011;37377;45.186;9.778;2023-04-27T16:21:28;16.77;;;13.10;;
51292;SDS011;37377;45.186;9.778;2023-04-27T16:24:06;19.88;;;11.80;;
51292;SDS011;37377;45.186;9.778;2023-04-27T16:26:40;23.83;;;11.80;;
51292;SDS011;37377;45.186;9.778;2023-04-27T16:29:07;19.20;;;12.38;;
51292;SDS011;37377;45.186;9.778;2023-04-27T16:31:38;15.23;;;11.25;;
51292;SDS011;37377;45.186;9.778;2023-04-27T16:34:14;19.02;;;12.32;;
51292;SDS011;37377;45.186;9.778;2023-04-27T16:37:06;16.52;;;11.23;;
51292;SDS011;37377;45.186;9.778;2023-04-27T16:39:54;17.70;;;10.23;;
51292;SDS011;37377;45.186;9.778;2023-04-27T16:43:37;16.00;;;9.55;;
51292;SDS011;37377;45.186;9.778;2023-04-27T16:48:50;14.40;;;8.30;;
51292;SDS011;37377;45.186;9.778;2023-04-27T16:51:31;15.25;;;8.68;;
51292;SDS011;37377;45.186;9.778;2023-04-27T16:54:11;8.98;;;6.95;;
51292;SDS011;37377;45.186;9.778;2023-04-27T16:56:45;11.50;;;7.63;;
51292;SDS011;37377;45.186;9.778;2023-04-27T16:59:24;14.73;;;7.43;;
51292;SDS011;37377;45.186;9.778;2023-04-27T17:02:09;8.65;;;6.05;;
51292;SDS011;37377;45.186;9.778;2023-04-27T17:05:37;9.85;;;5.88;;
51292;SDS011;37377;45.186;9.778;2023-04-27T17:08:36;12.25;;;6.35;;
51292;SDS011;37377;45.186;9.778;2023-04-27T17:11:46;8.98;;;6.65;;
51292;SDS011;37377;45.186;9.778;2023-04-27T17:15:55;11.85;;;6.57;;
51292;SDS011;37377;45.186;9.778;2023-04-27T17:18:16;14.63;;;6.93;;
51292;SDS011;37377;45.186;9.778;2023-04-27T17:21:28;9.02;;;6.32;;
51292;SDS011;37377;45.186;9.778;2023-04-27T17:24:26;11.15;;;7.07;;
51292;SDS011;37377;45.186;9.778;2023-04-27T17:31:47;8.00;;;5.50;;
51292;SDS011;37377;45.186;9.778;2023-04-27T17:34:22;10.88;;;5.20;;
51292;SDS011;37377;45.186;9.778;2023-04-27T17:37:12;8.82;;;5.45;;
51292;SDS011;37377;45.186;9.778;2023-04-27T17:40:32;7.65;;;4.85;;
51292;SDS011;37377;45.186;9.778;2023-04-27T17:44:31;6.88;;;5.38;;
51292;SDS011;37377;45.186;9.778;2023-04-27T17:47:13;7.97;;;5.00;;
51292;SDS011;37377;45.186;9.778;2023-04-27T17:49:46;8.73;;;4.50;;
51292;SDS011;37377;45.186;9.778;2023-04-27T17:52:28;11.07;;;4.80;;
51292;SDS011;37377;45.186;9.778;2023-04-27T17:55:11;9.55;;;4.35;;
51292;SDS011;37377;45.186;9.778;2023-04-27T17:58:11;6.32;;;4.68;;
51292;SDS011;37377;45.186;9.778;2023-04-27T18:00:40;8.75;;;4.20;;
51292;SDS011;37377;45.186;9.778;2023-04-27T18:09:23;10.68;;;4.72;;
51292;SDS011;37377;45.186;9.778;2023-04-27T18:18:16;7.63;;;5.22;;
51292;SDS011;37377;45.186;9.778;2023-04-27T18:21:37;8.98;;;4.97;;
51292;SDS011;37377;45.186;9.778;2023-04-27T18:25:23;9.25;;;4.97;;
51292;SDS011;37377;45.186;9.778;2023-04-27T18:29:49;11.77;;;5.10;;
51292;SDS011;37377;45.186;9.778;2023-04-27T18:38:20;19.30;;;5.20;;
51292;SDS011;37377;45.186;9.778;2023-04-27T18:41:55;7.72;;;5.15;;
51292;SDS011;37377;45.186;9.778;2023-04-27T18:58:30;13.27;;;5.15;;
51292;SDS011;37377;45.186;9.778;2023-04-27T19:02:21;11.88;;;7.00;;
51292;SDS011;37377;45.186;9.778;2023-04-27T19:05:59;14.20;;;6.00;;
51292;SDS011;37377;45.186;9.778;2023-04-27T19:09:46;14.10;;;6.55;;
51292;SDS011;37377;45.186;9.778;2023-04-27T19:13:45;11.55;;;5.72;;
51292;SDS011;37377;45.186;9.778;2023-04-27T19:16:41;13.90;;;7.18;;
51292;SDS011;37377;45.186;9.778;2023-04-27T19:19:51;9.32;;;5.40;;
51292;SDS011;37377;45.186;9.778;2023-04-27T19:23:29;16.88;;;6.25;;
51292;SDS011;37377;45.186;9.778;2023-04-27T19:26:51;15.27;;;6.55;;
51292;SDS011;37377;45.186;9.778;2023-04-27T19:33:52;16.75;;;9.98;;
51292;SDS011;37377;45.186;9.778;2023-04-27T19:36:46;23.35;;;9.05;;